Time;durP1;ratioP1;P1;durP2;ratioP2;P2;SDS_P1;SDS_P2;PMS_P1;PMS_P2;Temp;Humidity;BMP_temperature;BMP_pressure;BME280_temperature;BME280_humidity;BME280_pressure;Samples;Min_cycle;Max_cycle;Signal;HPM_P1;HPM_P2
2023/10/06 00:04:24;;;;;;;9.7;4.3;;;;;;;13.11;81.85;;;;;
2023/10/06 00:14:39;;;;;;;9.1;4.1;;;;;;;13.03;82.34;;;;;
2023/10/06 00:24:26;;;;;;;9.1;4.1;;;;;;;13.04;82.33;;;;;
2023/10/06 00:35:30;;;;;;;10.6;4.3;;;;;;;13.04;82.42;;;;;
2023/10/06 00:45:26;;;;;;;10.6;4.3;;;;;;;13.14;81.94;;;;;
2023/10/06 00:55:26;;;;;;;10.6;4.3;;;;;;;13.14;82.15;;;;;
2023/10/06 01:06:33;;;;;;;6.4;3.6;;;;;;;13.19;81.89;;;;;
2023/10/06 01:16:26;;;;;;;6.4;3.6;;;;;;;13.01;82.19;;;;;
2023/10/06 01:26:24;;;;;;;6.4;3.6;;;;;;;13;82.19;;;;;
2023/10/06 01:37:25;;;;;;;11;4.5;;;;;;;12.94;82;;;;;
2023/10/06 01:47:29;;;;;;;11;4.5;;;;;;;12.78;82.04;;;;;
2023/10/06 01:57:26;;;;;;;11;4.5;;;;;;;12.66;82.74;;;;;
2023/10/06 02:08:26;;;;;;;8.6;4.5;;;;;;;12.66;82.49;;;;;
2023/10/06 02:18:29;;;;;;;8.6;4.5;;;;;;;12.47;82.74;;;;;
2023/10/06 02:28:24;;;;;;;8.6;4.5;;;;;;;12.15;83.9;;;;;
2023/10/06 02:38:29;;;;;;;8;3.7;;;;;;;11.93;84.3;;;;;
2023/10/06 02:49:31;;;;;;;8;3.7;;;;;;;11.69;84.87;;;;;
2023/10/06 02:59:25;;;;;;;8;3.7;;;;;;;11.49;85.58;;;;;
2023/10/06 03:10:27;;;;;;;9.8;4.2;;;;;;;11.18;85.82;;;;;
2023/10/06 03:20:28;;;;;;;9.8;4.2;;;;;;;10.9;85.73;;;;;
2023/10/06 03:31:30;;;;;;;9.8;4.2;;;;;;;10.69;86.39;;;;;
2023/10/06 03:41:25;;;;;;;9.1;3.7;;;;;;;10.43;86.48;;;;;
2023/10/06 03:52:25;;;;;;;9.1;3.7;;;;;;;10.18;86.79;;;;;
2023/10/06 04:02:38;;;;;;;9.1;3.7;;;;;;;9.89;87.64;;;;;
2023/10/06 04:13:24;;;;;;;7.5;3.7;;;;;;;9.8;90.97;;;;;
2023/10/06 04:23:24;;;;;;;7.5;3.7;;;;;;;9.81;90.49;;;;;
2023/10/06 04:34:33;;;;;;;7.5;3.7;;;;;;;9.73;90.48;;;;;
2023/10/06 04:45:24;;;;;;;7.4;4;;;;;;;9.68;91.18;;;;;
2023/10/06 04:55:24;;;;;;;7.4;4;;;;;;;9.64;91.32;;;;;
2023/10/06 05:06:25;;;;;;;6.9;3.1;;;;;;;9.7;91.17;;;;;
2023/10/06 05:16:27;;;;;;;6.9;3.1;;;;;;;9.7;91.49;;;;;
2023/10/06 05:26:24;;;;;;;6.9;3.1;;;;;;;9.78;91.31;;;;;
2023/10/06 05:37:24;;;;;;;6.2;3.3;;;;;;;9.85;91.75;;;;;
2023/10/06 05:48:28;;;;;;;6.2;3.3;;;;;;;10.04;91.49;;;;;
2023/10/06 05:59:27;;;;;;;6.2;3.3;;;;;;;10.28;91.49;;;;;
2023/10/06 06:09:25;;;;;;;9.9;3.5;;;;;;;10.55;91.22;;;;;
2023/10/06 06:20:24;;;;;;;9.9;3.5;;;;;;;11;90.85;;;;;
2023/10/06 06:30:24;;;;;;;9.9;3.5;;;;;;;11.61;89.86;;;;;
2023/10/06 06:40:26;;;;;;;7.8;3.9;;;;;;;12.27;87.73;;;;;
2023/10/06 06:51:28;;;;;;;7.8;3.9;;;;;;;12.6;85.57;;;;;
2023/10/06 07:01:25;;;;;;;7.8;3.9;;;;;;;12.69;84.51;;;;;
2023/10/06 07:12:25;;;;;;;12.5;6.4;;;;;;;12.61;84.23;;;;;
2023/10/06 07:23:25;;;;;;;12.5;6.4;;;;;;;13.17;83.69;;;;;
2023/10/06 07:33:25;;;;;;;12.5;6.4;;;;;;;13.52;83.23;;;;;
2023/10/06 07:43:25;;;;;;;14;9.1;;;;;;;13.77;81.83;;;;;
2023/10/06 07:54:25;;;;;;;14;9.1;;;;;;;13.87;80.39;;;;;
2023/10/06 08:04:25;;;;;;;14;9.1;;;;;;;14.58;79.05;;;;;
2023/10/06 08:15:27;;;;;;;10.7;7.6;;;;;;;15.21;76.12;;;;;
2023/10/06 08:25:25;;;;;;;10.7;7.6;;;;;;;15.12;76.73;;;;;
2023/10/06 08:35:26;;;;;;;11.9;7.4;;;;;;;15.49;74.44;;;;;
2023/10/06 08:46:26;;;;;;;11.9;7.4;;;;;;;14.9;73.51;;;;;
2023/10/06 08:56:25;;;;;;;11.9;7.4;;;;;;;15.19;75.45;;;;;
2023/10/06 09:07:25;;;;;;;9;5.9;;;;;;;15.23;73.67;;;;;
2023/10/06 09:18:27;;;;;;;9;5.9;;;;;;;15.59;70.69;;;;;
2023/10/06 09:29:25;;;;;;;9;5.9;;;;;;;16.18;71.25;;;;;
2023/10/06 09:40:32;;;;;;;7.8;4.1;;;;;;;15.81;70.63;;;;;
2023/10/06 09:51:25;;;;;;;7.8;4.1;;;;;;;15.71;72.24;;;;;
2023/10/06 10:02:25;;;;;;;7.8;4.1;;;;;;;15.7;70.9;;;;;
2023/10/06 10:12:27;;;;;;;9;4.1;;;;;;;15.72;72.4;;;;;
2023/10/06 10:23:25;;;;;;;9;4.1;;;;;;;15.92;66.7;;;;;
2023/10/06 10:33:25;;;;;;;9;4.1;;;;;;;16.81;67.28;;;;;
2023/10/06 10:44:25;;;;;;;9.7;4;;;;;;;16.37;67.35;;;;;
2023/10/06 10:54:26;;;;;;;9.7;4;;;;;;;16.74;64.74;;;;;
2023/10/06 11:05:26;;;;;;;6.5;3.1;;;;;;;16.62;61.41;;;;;
2023/10/06 11:16:25;;;;;;;6.5;3.1;;;;;;;17.23;60.09;;;;;
2023/10/06 11:26:25;;;;;;;6.5;3.1;;;;;;;17.47;58.68;;;;;
2023/10/06 11:37:25;;;;;;;6.7;3;;;;;;;17.55;58.39;;;;;
2023/10/06 11:42:56;;;;;;;6.7;3;;;;;;;17.61;58.73;;;;;
2023/10/06 11:52:56;;;;;;;6.7;3;;;;;;;17.79;56.09;;;;;
2023/10/06 12:03:59;;;;;;;6.7;3;;;;;;;17.84;57.26;;;;;
2023/10/06 12:13:56;;;;;;;6.5;2.5;;;;;;;17.84;55.17;;;;;
2023/10/06 12:23:56;;;;;;;6.5;2.5;;;;;;;17.91;55.97;;;;;
2023/10/06 12:34:59;;;;;;;6.6;3;;;;;;;18.07;56.22;;;;;
2023/10/06 12:45:58;;;;;;;6.6;3;;;;;;;18.09;55.19;;;;;
2023/10/06 12:56:56;;;;;;;6.6;3;;;;;;;18.02;54.75;;;;;
2023/10/06 13:07:57;;;;;;;5;2.3;;;;;;;17.97;55.46;;;;;
2023/10/06 13:18:56;;;;;;;5;2.3;;;;;;;17.9;54.45;;;;;
2023/10/06 13:28:56;;;;;;;5;2.3;;;;;;;17.84;55.95;;;;;
2023/10/06 13:38:56;;;;;;;5;2.2;;;;;;;17.61;55.02;;;;;
2023/10/06 13:49:56;;;;;;;5;2.2;;;;;;;17.57;56.83;;;;;
2023/10/06 14:00:58;;;;;;;5;2.2;;;;;;;17.47;58.18;;;;;
2023/10/06 14:10:56;;;;;;;5;2.7;;;;;;;17.28;58.41;;;;;
2023/10/06 14:21:56;;;;;;;5;2.7;;;;;;;17.35;59.28;;;;;
2023/10/06 14:32:09;;;;;;;5;2.7;;;;;;;17.48;58.88;;;;;
2023/10/06 14:53:57;;;;;;;5.9;2.6;;;;;;;17.29;60.71;;;;;
2023/10/06 15:03:59;;;;;;;5.9;2.6;;;;;;;17.12;61.48;;;;;
2023/10/06 15:14:57;;;;;;;5.3;2.8;;;;;;;16.92;62.81;;;;;
2023/10/06 15:24:56;;;;;;;5.3;2.8;;;;;;;16.58;63.87;;;;;
2023/10/06 15:34:56;;;;;;;8.1;3.4;;;;;;;16.23;65.7;;;;;
2023/10/06 15:44:57;;;;;;;8.1;3.4;;;;;;;15.75;66.66;;;;;
2023/10/06 15:55:57;;;;;;;8.1;3.4;;;;;;;15.08;69.34;;;;;
2023/10/06 16:05:56;;;;;;;12.5;4.8;;;;;;;14.41;72.29;;;;;
2023/10/06 16:16:57;;;;;;;12.5;4.8;;;;;;;13.73;77.26;;;;;
2023/10/06 16:26:57;;;;;;;12.5;4.8;;;;;;;13.44;77.59;;;;;
2023/10/06 16:37:56;;;;;;;9.9;5.9;;;;;;;13;79.32;;;;;
2023/10/06 16:47:56;;;;;;;9.9;5.9;;;;;;;12.87;79.79;;;;;
2023/10/06 16:58:56;;;;;;;9.9;5.9;;;;;;;12.73;80.04;;;;;
2023/10/06 17:09:56;;;;;;;8.2;4.7;;;;;;;12.79;79.88;;;;;
2023/10/06 17:20:57;;;;;;;8.2;4.7;;;;;;;12.66;80.96;;;;;
2023/10/06 17:31:57;;;;;;;8.2;4.7;;;;;;;12.57;81.79;;;;;
2023/10/06 17:41:56;;;;;;;10.7;7.1;;;;;;;12.83;80.63;;;;;
2023/10/06 17:51:57;;;;;;;10.7;7.1;;;;;;;12.99;80.05;;;;;
2023/10/06 18:02:56;;;;;;;10.7;7.1;;;;;;;13.15;79.21;;;;;
2023/10/06 18:12:56;;;;;;;8.2;4.1;;;;;;;13.11;79.58;;;;;
2023/10/06 18:23:58;;;;;;;8.2;4.1;;;;;;;13.07;79.07;;;;;
2023/10/06 18:33:56;;;;;;;8.2;4.1;;;;;;;13.25;77.57;;;;;
2023/10/06 18:43:57;;;;;;;7.7;4.4;;;;;;;13.26;76.52;;;;;
2023/10/06 18:54:56;;;;;;;7.7;4.4;;;;;;;13.13;76.61;;;;;
2023/10/06 19:04:56;;;;;;;8.6;4.8;;;;;;;13.18;76.29;;;;;
2023/10/06 19:14:56;;;;;;;8.6;4.8;;;;;;;13.04;76.95;;;;;
2023/10/06 19:24:56;;;;;;;8.6;4.8;;;;;;;12.92;77.25;;;;;
2023/10/06 19:34:56;;;;;;;10.1;5;;;;;;;12.81;78.09;;;;;
2023/10/06 19:44:56;;;;;;;10.1;5;;;;;;;12.82;77.99;;;;;
2023/10/06 19:55:56;;;;;;;10.1;5;;;;;;;12.73;78.35;;;;;
2023/10/06 20:05:56;;;;;;;8.4;4.3;;;;;;;12.57;78.87;;;;;
2023/10/06 20:16:58;;;;;;;8.4;4.3;;;;;;;12.56;78.86;;;;;
2023/10/06 20:27:56;;;;;;;8.4;4.3;;;;;;;12.62;78.47;;;;;
2023/10/06 20:37:57;;;;;;;8.7;4.3;;;;;;;12.63;78.55;;;;;
2023/10/06 20:47:57;;;;;;;8.7;4.3;;;;;;;12.88;77.92;;;;;
2023/10/06 20:58:57;;;;;;;8.7;4.3;;;;;;;13.14;77.16;;;;;
2023/10/06 21:09:56;;;;;;;7.1;3.8;;;;;;;13.42;76.04;;;;;
2023/10/06 21:20:57;;;;;;;7.1;3.8;;;;;;;13.55;76.1;;;;;
2023/10/06 21:30:57;;;;;;;7.1;3.8;;;;;;;13.67;75.37;;;;;
2023/10/06 21:40:57;;;;;;;7.7;4.1;;;;;;;13.81;74.51;;;;;
2023/10/06 21:51:56;;;;;;;7.7;4.1;;;;;;;13.98;73.3;;;;;
2023/10/06 22:01:57;;;;;;;7.7;4.1;;;;;;;14.07;72.68;;;;;
2023/10/06 22:12:59;;;;;;;6.1;3.6;;;;;;;14.19;71.77;;;;;
2023/10/06 22:22:56;;;;;;;6.1;3.6;;;;;;;14.17;71.54;;;;;
2023/10/06 22:33:57;;;;;;;6.1;3.6;;;;;;;14.12;71.23;;;;;
2023/10/06 22:43:57;;;;;;;6.1;3.5;;;;;;;14.05;71.46;;;;;
2023/10/06 22:54:57;;;;;;;6.1;3.5;;;;;;;13.93;71.64;;;;;
2023/10/06 23:04:57;;;;;;;6.1;3.6;;;;;;;13.83;72.24;;;;;
2023/10/06 23:14:57;;;;;;;6.1;3.6;;;;;;;13.82;71.95;;;;;
2023/10/06 23:25:57;;;;;;;6.1;3.6;;;;;;;13.68;71.93;;;;;
2023/10/06 23:36:56;;;;;;;5.2;2.6;;;;;;;13.47;72.25;;;;;
2023/10/06 23:46:57;;;;;;;5.2;2.6;;;;;;;13.31;72.32;;;;;
2023/10/06 23:57:59;;;;;;;5.2;2.6;;;;;;;13.25;71.91;;;;;
